Time;durP1;ratioP1;P1;durP2;ratioP2;P2;SDS_P1;SDS_P2;PMS_P1;PMS_P2;Temp;Humidity;BMP_temperature;BMP_pressure;BME280_temperature;BME280_humidity;BME280_pressure;Samples;Min_cycle;Max_cycle;Signal;HPM_P1;HPM_P2
2022/05/06 00:00:16;;;;;;;;;;;;;;;24.94;33.82;99540.78;4483546;32;34172;-84
2022/05/06 00:02:44;;;;;;;;;;;;;;;24.66;34.05;99544.53;4482675;32;34396;-84
2022/05/06 00:05:11;;;;;;;;;;;;;;;24.58;34.14;99540.44;4467585;32;33773;-84
2022/05/06 00:07:38;;;;;;;;;;;;;;;24.61;33.99;99541.19;4483034;32;34932;-85
2022/05/06 00:10:06;;;;;;;;;;;;;;;24.69;33.93;99538.22;4483147;32;33841;-85
2022/05/06 00:12:34;;;;;;;;;;;;;;;24.67;33.96;99535.66;4468191;32;34495;-85
2022/05/06 00:15:01;;;;;;;;;;;;;;;24.65;34.35;99533.97;4463239;32;33551;-84
2022/05/06 00:17:28;;;;;;;;;;;;;;;24.45;34.33;99530.31;4482856;32;34163;-85
2022/05/06 00:19:56;;;;;;;;;;;;;;;24.70;33.92;99530.22;4483059;32;34574;-85
2022/05/06 00:22:23;;;;;;;;;;;;;;;24.72;34.03;99524.84;4482529;32;34600;-84
2022/05/06 00:24:51;;;;;;;;;;;;;;;24.36;34.43;99524.44;4463991;32;34403;-85
2022/05/06 00:27:19;;;;;;;;;;;;;;;24.26;34.55;99527.44;4482783;32;35127;-84
2022/05/06 00:29:46;;;;;;;;;;;;;;;24.34;34.75;99526.31;4482437;32;34290;-84
2022/05/06 00:32:15;;;;;;;;;;;;;;;24.39;34.59;99532.31;4482711;32;34235;-84
2022/05/06 00:34:42;;;;;;;;;;;;;;;24.35;34.82;99533.31;4481463;32;33535;-85
2022/05/06 00:37:09;;;;;;;;;;;;;;;24.44;34.19;99528.59;4482811;32;34995;-85
2022/05/06 00:39:37;;;;;;;;;;;;;;;24.32;35.01;99528.13;4482799;32;34170;-83
2022/05/06 00:42:04;;;;;;;;;;;;;;;24.42;35.17;99534.84;4482588;32;34095;-86
2022/05/06 00:44:33;;;;;;;;;;;;;;;24.49;34.71;99536.34;4477655;32;33626;-83
2022/05/06 00:47:00;;;;;;;;;;;;;;;24.46;34.57;99529.37;4482418;32;35091;-85
2022/05/06 00:49:27;;;;;;;;;;;;;;;24.61;34.45;99527.91;4482680;32;34319;-84
2022/05/06 00:51:55;;;;;;;;;;;;;;;24.61;34.43;99529.72;4482507;32;34189;-84
2022/05/06 00:54:23;;;;;;;;;;;;;;;24.40;34.69;99526.13;4477336;32;33309;-84
2022/05/06 00:56:51;;;;;;;;;;;;;;;24.23;34.83;99532.84;4481618;32;33815;-84
2022/05/06 00:59:18;;;;;;;;;;;;;;;24.33;35.23;99533.41;4461812;32;34097;-84
2022/05/06 01:01:47;;;;;;;;;;;;;;;24.32;35.28;99533.44;4478866;32;34741;-85
2022/05/06 01:04:17;;;;;;;;;;;;;;;24.36;35.08;99533.28;4479713;32;33287;-84
2022/05/06 01:06:47;;;;;;;;;;;;;;;24.14;34.08;99535.87;4470665;32;33899;-84
2022/05/06 01:09:15;;;;;;;;;;;;;;;24.34;34.27;99542.19;4455924;32;35265;-84
2022/05/06 01:11:44;;;;;;;;;;;;;;;23.93;34.45;99541.94;4479055;32;34552;-84
2022/05/06 01:14:22;;;;;;;;;;;;;;;24.14;35.17;99548.25;4470429;32;33441;-85
2022/05/06 01:16:50;;;;;;;;;;;;;;;24.14;35.05;99551.75;4469542;32;33761;-85
2022/05/06 01:19:18;;;;;;;;;;;;;;;24.28;34.70;99549.47;4482209;32;34256;-82
2022/05/06 01:21:50;;;;;;;;;;;;;;;23.49;36.05;99546.97;4483550;32;35351;-83
2022/05/06 01:24:17;;;;;;;;;;;;;;;23.33;36.52;99538.66;4484203;32;34411;-83
2022/05/06 01:27:05;;;;;;;;;;;;;;;22.79;37.12;99540.38;4483608;32;34406;-84
2022/05/06 01:29:32;;;;;;;;;;;;;;;22.32;38.10;99537.41;4473687;32;34255;-85
2022/05/06 01:32:00;;;;;;;;;;;;;;;22.13;38.65;99549.38;4483376;32;35188;-83
2022/05/06 01:34:28;;;;;;;;;;;;;;;22.57;37.88;99552.50;4484125;32;34214;-84
2022/05/06 01:36:57;;;;;;;;;;;;;;;21.90;38.90;99551.78;4469641;32;34120;-84
2022/05/06 01:39:29;;;;;;;;;;;;;;;21.21;40.68;99551.75;4482058;32;35106;-85
2022/05/06 01:41:58;;;;;;;;;;;;;;;21.58;39.92;99549.06;4469051;32;35112;-84
2022/05/06 01:44:26;;;;;;;;;;;;;;;21.10;40.93;99553.75;4483769;32;33655;-84
2022/05/06 01:46:53;;;;;;;;;;;;;;;20.65;41.95;99548.69;4469934;32;33854;-83
2022/05/06 01:49:21;;;;;;;;;;;;;;;20.95;41.28;99546.22;4468213;32;34548;-85
2022/05/06 01:51:49;;;;;;;;;;;;;;;20.27;43.11;99542.44;4484354;32;34468;-85
2022/05/06 01:54:16;;;;;;;;;;;;;;;20.51;42.41;99546.34;4469892;32;33629;-85
2022/05/06 01:56:48;;;;;;;;;;;;;;;21.10;41.54;99548.50;4465642;32;34355;-84
2022/05/06 01:59:17;;;;;;;;;;;;;;;21.18;41.15;99545.69;4481803;32;33821;-84
2022/05/06 02:01:45;;;;;;;;;;;;;;;20.82;42.10;99551.78;4468726;32;34509;-83
2022/05/06 02:07:01;;;;;;;;;;;;;;;20.54;42.87;99543.66;4475634;32;33629;-83
2022/05/06 02:09:29;;;;;;;;;;;;;;;20.87;42.26;99535.84;4478713;32;34415;-83
2022/05/06 02:11:57;;;;;;;;;;;;;;;19.85;44.71;99545.03;4470019;32;34467;-84
2022/05/06 02:14:26;;;;;;;;;;;;;;;20.41;43.60;99535.09;4483401;32;33633;-83
2022/05/06 02:16:55;;;;;;;;;;;;;;;20.25;43.67;99544.22;4456464;32;34215;-85
2022/05/06 02:19:22;;;;;;;;;;;;;;;20.67;42.79;99548.63;4478554;32;34380;-85
2022/05/06 02:21:50;;;;;;;;;;;;;;;20.40;43.11;99546.53;4483953;32;35070;-84
2022/05/06 02:24:18;;;;;;;;;;;;;;;20.10;43.85;99544.53;4483584;32;33671;-83
2022/05/06 02:26:46;;;;;;;;;;;;;;;20.60;42.82;99553.16;4469454;32;34206;-84
2022/05/06 02:29:14;;;;;;;;;;;;;;;20.17;43.57;99547.00;4477240;32;35283;-84
2022/05/06 02:34:28;;;;;;;;;;;;;;;20.96;41.92;99540.06;4483688;32;34529;-83
2022/05/06 02:36:57;;;;;;;;;;;;;;;20.47;42.96;99541.13;4482557;32;34011;-85
2022/05/06 02:39:26;;;;;;;;;;;;;;;20.15;43.42;99542.66;4483804;32;34184;-85
2022/05/06 02:41:55;;;;;;;;;;;;;;;20.11;43.59;99551.50;4483342;32;34238;-85
2022/05/06 02:44:24;;;;;;;;;;;;;;;19.75;44.21;99548.72;4484303;32;33056;-84
2022/05/06 02:46:52;;;;;;;;;;;;;;;19.21;45.53;99551.37;4482802;32;33667;-84
2022/05/06 02:49:19;;;;;;;;;;;;;;;19.41;45.22;99556.28;4483069;32;34868;-85
2022/05/06 02:51:47;;;;;;;;;;;;;;;19.97;44.05;99548.31;4483373;32;34440;-85
2022/05/06 02:54:21;;;;;;;;;;;;;;;20.06;43.56;99551.63;4483795;32;34415;-84
2022/05/06 02:56:49;;;;;;;;;;;;;;;20.15;43.61;99554.09;4482334;32;34680;-85
2022/05/06 02:59:17;;;;;;;;;;;;;;;19.92;44.07;99541.34;4482822;32;34994;-85
2022/05/06 03:01:44;;;;;;;;;;;;;;;19.88;43.88;99537.03;4483536;32;34408;-84
2022/05/06 03:04:12;;;;;;;;;;;;;;;19.75;44.20;99538.19;4483630;32;34322;-84
2022/05/06 03:06:42;;;;;;;;;;;;;;;20.07;44.01;99539.31;4482092;32;34325;-85
2022/05/06 03:09:10;;;;;;;;;;;;;;;19.20;45.24;99531.22;4469438;32;34365;-84
2022/05/06 03:11:37;;;;;;;;;;;;;;;19.68;44.45;99533.94;4483419;32;34304;-86
2022/05/06 03:14:05;;;;;;;;;;;;;;;19.94;43.85;99533.44;4483514;32;33794;-85
2022/05/06 03:16:33;;;;;;;;;;;;;;;20.23;43.21;99532.88;4478322;32;34863;-86
2022/05/06 03:19:00;;;;;;;;;;;;;;;20.14;43.20;99546.19;4442091;32;33754;-84
2022/05/06 03:21:28;;;;;;;;;;;;;;;19.76;44.16;99545.16;4467785;32;34477;-85
2022/05/06 03:23:57;;;;;;;;;;;;;;;20.75;42.00;99542.28;4477369;32;33217;-84
2022/05/06 03:26:24;;;;;;;;;;;;;;;20.44;42.32;99538.56;4466103;32;35166;-84
2022/05/06 03:28:54;;;;;;;;;;;;;;;20.28;42.90;99536.25;4482109;32;34122;-84
2022/05/06 03:31:21;;;;;;;;;;;;;;;20.51;42.70;99545.47;4467800;32;35330;-84
2022/05/06 03:33:49;;;;;;;;;;;;;;;20.07;43.06;99547.22;4482548;32;33434;-85
2022/05/06 03:36:17;;;;;;;;;;;;;;;20.94;41.67;99548.00;4465482;32;35022;-84
2022/05/06 03:38:45;;;;;;;;;;;;;;;20.85;41.10;99548.22;4481696;32;35149;-84
2022/05/06 03:41:13;;;;;;;;;;;;;;;21.07;41.00;99551.22;4467648;32;35034;-85
2022/05/06 03:43:41;;;;;;;;;;;;;;;21.06;40.96;99552.09;4468470;32;33756;-85
2022/05/06 03:46:09;;;;;;;;;;;;;;;20.94;41.40;99545.34;4456706;32;33960;-84
2022/05/06 03:48:36;;;;;;;;;;;;;;;19.63;43.86;99548.94;4479981;32;35034;-85
2022/05/06 03:51:24;;;;;;;;;;;;;;;20.09;43.21;99545.44;4481636;32;33842;-86
2022/05/06 03:53:52;;;;;;;;;;;;;;;20.29;42.86;99550.28;4468893;32;33266;-85
2022/05/06 03:56:22;;;;;;;;;;;;;;;20.21;42.95;99539.91;4467350;32;34026;-84
2022/05/06 03:58:53;;;;;;;;;;;;;;;19.60;44.30;99556.84;4466850;32;34098;-82
2022/05/06 04:01:21;;;;;;;;;;;;;;;19.51;44.48;99562.25;4461831;32;35293;-85
2022/05/06 04:03:50;;;;;;;;;;;;;;;20.24;43.32;99555.66;4482326;32;32840;-83
2022/05/06 04:06:19;;;;;;;;;;;;;;;20.61;42.32;99561.06;4479250;32;33952;-84
2022/05/06 04:08:47;;;;;;;;;;;;;;;20.68;42.46;99561.75;4481837;32;34221;-84
2022/05/06 04:11:17;;;;;;;;;;;;;;;20.28;43.24;99556.47;4480956;32;34485;-85
2022/05/06 04:13:44;;;;;;;;;;;;;;;19.51;45.15;99568.41;4481276;32;32101;-84
2022/05/06 04:16:12;;;;;;;;;;;;;;;20.48;43.13;99556.03;4477736;32;33696;-85
2022/05/06 04:18:41;;;;;;;;;;;;;;;20.73;42.69;99557.28;4478999;32;34209;-85
2022/05/06 04:23:55;;;;;;;;;;;;;;;20.17;43.84;99569.84;4456975;32;785088;-86
2022/05/06 04:26:23;;;;;;;;;;;;;;;20.04;44.43;99584.13;4482038;32;35148;-85
2022/05/06 04:28:50;;;;;;;;;;;;;;;20.44;43.48;99578.06;4482059;32;34379;-85
2022/05/06 04:31:18;;;;;;;;;;;;;;;20.28;44.19;99583.66;4482925;32;34517;-85
2022/05/06 04:33:45;;;;;;;;;;;;;;;19.67;45.36;99590.06;4468073;32;33589;-81
2022/05/06 04:36:14;;;;;;;;;;;;;;;19.56;45.95;99587.59;4465834;32;34371;-83
2022/05/06 04:38:42;;;;;;;;;;;;;;;20.64;43.69;99586.44;4468009;32;34337;-84
2022/05/06 04:41:10;;;;;;;;;;;;;;;20.21;44.75;99592.56;4482712;32;34700;-84
2022/05/06 04:43:38;;;;;;;;;;;;;;;19.78;46.21;99595.16;4482682;32;33457;-84
2022/05/06 04:46:05;;;;;;;;;;;;;;;19.99;45.29;99594.72;4481179;32;33990;-83
2022/05/06 04:48:34;;;;;;;;;;;;;;;20.37;45.20;99598.38;4474318;31;34380;-81
2022/05/06 04:51:01;;;;;;;;;;;;;;;20.59;44.36;99593.59;4489739;31;35082;-83
2022/05/06 04:53:29;;;;;;;;;;;;;;;21.43;42.66;99604.00;4475078;32;33351;-83
2022/05/06 04:55:56;;;;;;;;;;;;;;;22.07;41.22;99602.34;4466799;32;34930;-83
2022/05/06 04:58:24;;;;;;;;;;;;;;;21.60;42.05;99607.09;4466992;32;34814;-83
2022/05/06 05:00:57;;;;;;;;;;;;;;;21.36;42.11;99608.56;4482033;32;34394;-83
2022/05/06 05:03:25;;;;;;;;;;;;;;;20.76;43.83;99614.28;4482303;32;34347;-83
2022/05/06 05:05:54;;;;;;;;;;;;;;;20.69;43.65;99608.31;4476464;32;34343;-84
2022/05/06 05:08:21;;;;;;;;;;;;;;;19.92;45.30;99619.44;4466748;32;34151;-83
2022/05/06 05:10:49;;;;;;;;;;;;;;;19.72;46.20;99611.03;4466910;32;34316;-84
2022/05/06 05:13:16;;;;;;;;;;;;;;;19.96;45.88;99614.97;4461316;32;34003;-83
2022/05/06 05:15:44;;;;;;;;;;;;;;;20.09;45.60;99613.88;4467065;32;34771;-82
2022/05/06 05:18:12;;;;;;;;;;;;;;;19.82;46.22;99602.94;4481376;32;33727;-81
2022/05/06 05:20:40;;;;;;;;;;;;;;;19.67;46.54;99601.47;4482297;32;34644;-83
2022/05/06 05:23:07;;;;;;;;;;;;;;;20.14;46.15;99612.87;4481599;32;34105;-81
2022/05/06 05:25:35;;;;;;;;;;;;;;;19.90;46.15;99611.56;4472325;32;34778;-81
2022/05/06 05:28:02;;;;;;;;;;;;;;;20.36;44.98;99610.69;4480975;32;34022;-81
2022/05/06 05:30:34;;;;;;;;;;;;;;;19.50;47.30;99613.97;4494896;31;34348;-82
2022/05/06 05:33:02;;;;;;;;;;;;;;;19.98;46.07;99615.84;4483942;31;33830;-82
2022/05/06 05:35:29;;;;;;;;;;;;;;;19.90;46.14;99614.19;4481821;31;34323;-82
2022/05/06 05:37:57;;;;;;;;;;;;;;;19.25;47.48;99613.50;4481566;32;33851;-83
2022/05/06 05:40:25;;;;;;;;;;;;;;;19.95;46.06;99613.25;4480879;32;35456;-81
2022/05/06 05:42:52;;;;;;;;;;;;;;;20.11;45.73;99615.56;4480249;32;34186;-84
2022/05/06 05:48:21;;;;;;;;;;;;;;;19.71;46.51;99620.69;4466548;32;34882;-84
2022/05/06 05:50:48;;;;;;;;;;;;;;;19.84;46.57;99613.44;4468327;32;34479;-83
2022/05/06 05:53:16;;;;;;;;;;;;;;;20.48;45.03;99620.09;4469146;32;33490;-84
2022/05/06 05:55:44;;;;;;;;;;;;;;;19.91;46.55;99625.59;4483006;32;33943;-84
2022/05/06 05:58:13;;;;;;;;;;;;;;;20.51;45.06;99624.50;4484217;32;34457;-84
2022/05/06 06:00:40;;;;;;;;;;;;;;;20.29;45.36;99629.28;4484183;32;34356;-83
2022/05/06 06:03:08;;;;;;;;;;;;;;;19.58;46.99;99630.50;4483926;32;33684;-83
2022/05/06 06:05:35;;;;;;;;;;;;;;;19.95;46.15;99631.66;4470922;32;34912;-82
2022/05/06 06:08:03;;;;;;;;;;;;;;;19.47;47.68;99639.44;4468477;32;34101;-83
2022/05/06 06:10:31;;;;;;;;;;;;;;;19.57;47.16;99631.41;4468583;32;35280;-84
2022/05/06 06:13:04;;;;;;;;;;;;;;;19.79;47.03;99641.59;4478953;32;33596;-83
2022/05/06 06:15:32;;;;;;;;;;;;;;;19.59;47.18;99634.03;4481691;32;34683;-84
2022/05/06 06:18:00;;;;;;;;;;;;;;;19.29;47.72;99640.63;4470001;32;34845;-84
2022/05/06 06:20:27;;;;;;;;;;;;;;;19.70;46.79;99640.00;4482839;32;34562;-83
2022/05/06 06:22:55;;;;;;;;;;;;;;;19.20;47.99;99641.59;4470315;32;33648;-83
2022/05/06 06:25:22;;;;;;;;;;;;;;;19.52;47.80;99641.13;4468176;32;34180;-83
2022/05/06 06:27:51;;;;;;;;;;;;;;;19.25;48.19;99638.94;4468380;32;35182;-83
2022/05/06 06:30:18;;;;;;;;;;;;;;;19.43;48.15;99641.25;4467825;32;34751;-83
2022/05/06 06:32:52;;;;;;;;;;;;;;;19.96;46.71;99650.06;4468384;32;33704;-82
2022/05/06 06:35:21;;;;;;;;;;;;;;;19.88;46.94;99649.31;4468439;32;34130;-83
2022/05/06 06:37:49;;;;;;;;;;;;;;;19.96;47.01;99654.44;4441397;32;33247;-83
2022/05/06 06:40:17;;;;;;;;;;;;;;;19.64;47.79;99653.25;4481352;32;33548;-82
2022/05/06 06:42:46;;;;;;;;;;;;;;;19.86;46.89;99649.38;4484126;32;34557;-83
2022/05/06 06:45:14;;;;;;;;;;;;;;;20.03;47.00;99648.19;4483809;32;34991;-83
2022/05/06 06:47:43;;;;;;;;;;;;;;;19.95;46.80;99647.47;4484031;32;34032;-83
2022/05/06 06:50:12;;;;;;;;;;;;;;;19.89;46.98;99643.19;4482287;32;34605;-83
2022/05/06 06:52:40;;;;;;;;;;;;;;;20.38;46.16;99642.25;4468830;32;34438;-83
2022/05/06 06:55:07;;;;;;;;;;;;;;;20.14;47.06;99646.22;4468140;32;34206;-83
2022/05/06 06:57:35;;;;;;;;;;;;;;;20.47;45.83;99642.09;4467717;32;34405;-83
2022/05/06 07:00:03;;;;;;;;;;;;;;;20.04;47.24;99642.00;4466673;32;35240;-83
2022/05/06 07:02:39;;;;;;;;;;;;;;;20.70;45.34;99638.16;4467902;32;33689;-83
2022/05/06 07:05:07;;;;;;;;;;;;;;;20.33;46.03;99633.59;4466666;32;35015;-83
2022/05/06 07:13:34;;;;;;;;;;;;;;;21.25;44.71;99639.56;4470885;32;34400;-83
2022/05/06 07:16:01;;;;;;;;;;;;;;;21.10;45.23;99635.50;4483467;32;34093;-83
2022/05/06 07:18:29;;;;;;;;;;;;;;;22.19;42.34;99633.72;4481672;32;34000;-83
2022/05/06 07:20:56;;;;;;;;;;;;;;;21.92;42.81;99637.94;4473504;32;34411;-83
2022/05/06 07:23:24;;;;;;;;;;;;;;;22.38;42.47;99631.44;4483393;32;34358;-84
2022/05/06 07:25:51;;;;;;;;;;;;;;;21.79;43.12;99637.41;4460602;32;33811;-83
2022/05/06 07:28:19;;;;;;;;;;;;;;;21.87;43.33;99638.06;4467522;32;34359;-83
2022/05/06 07:30:46;;;;;;;;;;;;;;;22.10;43.09;99639.22;4467784;32;34437;-83
2022/05/06 07:33:13;;;;;;;;;;;;;;;22.55;42.29;99636.25;4467898;32;34029;-83
2022/05/06 07:35:41;;;;;;;;;;;;;;;23.21;41.05;99636.94;4467684;32;34085;-84
2022/05/06 07:38:08;;;;;;;;;;;;;;;22.24;42.46;99639.75;4467621;32;33871;-84
2022/05/06 07:40:35;;;;;;;;;;;;;;;23.47;40.37;99634.34;4470714;32;34963;-82
2022/05/06 07:43:03;;;;;;;;;;;;;;;23.30;40.57;99636.69;4469447;32;33446;-82
2022/05/06 07:45:30;;;;;;;;;;;;;;;24.13;38.44;99637.47;4467564;32;35049;-82
2022/05/06 07:47:57;;;;;;;;;;;;;;;23.59;39.88;99648.09;4467535;32;34308;-83
2022/05/06 07:50:37;;;;;;;;;;;;;;;22.44;42.07;99644.50;4472306;32;34564;-83
2022/05/06 07:53:05;;;;;;;;;;;;;;;22.75;41.48;99649.75;4476459;32;33212;-84
2022/05/06 07:55:35;;;;;;;;;;;;;;;22.53;41.75;99651.28;4472984;32;33908;-84
2022/05/06 07:58:04;;;;;;;;;;;;;;;23.53;39.83;99644.75;4473465;32;35268;-83
2022/05/06 08:00:32;;;;;;;;;;;;;;;23.25;40.75;99649.16;4467303;32;34515;-83
2022/05/06 08:05:47;;;;;;;;;;;;;;;24.17;39.46;99641.72;4465759;32;34831;-83
2022/05/06 08:08:14;;;;;;;;;;;;;;;24.41;38.44;99644.44;4467388;32;35339;-83
2022/05/06 08:10:42;;;;;;;;;;;;;;;24.60;38.02;99647.28;4482425;32;34346;-84
2022/05/06 08:13:09;;;;;;;;;;;;;;;23.60;39.78;99642.75;4468874;32;33546;-83
2022/05/06 08:15:37;;;;;;;;;;;;;;;23.50;39.87;99646.62;4478632;32;34362;-84
2022/05/06 08:18:05;;;;;;;;;;;;;;;23.16;41.12;99649.47;4456580;32;35112;-85
2022/05/06 08:20:32;;;;;;;;;;;;;;;23.85;40.15;99650.75;4467496;32;34072;-83
2022/05/06 08:23:00;;;;;;;;;;;;;;;24.01;38.52;99641.38;4467135;32;34355;-84
2022/05/06 08:25:27;;;;;;;;;;;;;;;23.39;39.83;99643.44;4473410;32;33716;-83
2022/05/06 08:28:05;;;;;;;;;;;;;;;23.21;40.05;99635.16;4482065;32;35360;-83
2022/05/06 08:30:32;;;;;;;;;;;;;;;23.68;39.07;99635.47;4482364;32;33599;-84
2022/05/06 08:32:59;;;;;;;;;;;;;;;23.26;40.48;99641.19;4468821;32;32789;-85
2022/05/06 08:35:27;;;;;;;;;;;;;;;23.57;40.63;99650.78;4482677;32;35040;-82
2022/05/06 08:37:55;;;;;;;;;;;;;;;22.60;41.48;99650.19;4468170;32;35227;-84
2022/05/06 08:40:22;;;;;;;;;;;;;;;22.62;41.91;99642.25;4466025;32;35154;-83
2022/05/06 08:42:50;;;;;;;;;;;;;;;23.20;40.79;99646.66;4466712;32;33485;-83
2022/05/06 08:50:51;;;;;;;;;;;;;;;23.33;40.24;99644.50;4467177;32;33940;-84
2022/05/06 08:53:27;;;;;;;;;;;;;;;23.35;39.44;99645.31;4466897;32;33772;-84
2022/05/06 08:55:55;;;;;;;;;;;;;;;23.52;39.26;99644.75;4452577;32;34600;-84
2022/05/06 08:58:23;;;;;;;;;;;;;;;23.49;38.15;99645.75;4466811;32;34268;-81
2022/05/06 09:00:53;;;;;;;;;;;;;;;23.36;39.03;99647.03;4466684;32;34671;-84
2022/05/06 09:03:20;;;;;;;;;;;;;;;23.80;37.53;99639.47;4465396;32;33059;-83
2022/05/06 09:05:52;;;;;;;;;;;;;;;24.19;37.68;99645.16;4466695;32;34286;-83
2022/05/06 09:08:20;;;;;;;;;;;;;;;22.97;39.75;99649.16;4466902;32;34830;-83
2022/05/06 09:11:00;;;;;;;;;;;;;;;23.98;38.24;99651.19;4466779;32;34935;-83
2022/05/06 09:13:28;;;;;;;;;;;;;;;23.84;38.88;99643.75;4469628;32;33111;-82
2022/05/06 09:19:12;;;;;;;;;;;;;;;23.70;39.37;99646.84;4478001;32;33947;-84
2022/05/06 09:21:39;;;;;;;;;;;;;;;23.97;38.52;99647.69;4482652;32;34173;-84
2022/05/06 09:24:19;;;;;;;;;;;;;;;24.20;38.44;99641.59;4483342;32;33293;-85
2022/05/06 09:27:05;;;;;;;;;;;;;;;24.16;38.21;99647.91;4468687;32;34915;-86
2022/05/06 09:29:37;;;;;;;;;;;;;;;25.08;37.35;99647.22;4468260;32;34531;-85
2022/05/06 09:32:23;;;;;;;;;;;;;;;24.39;37.40;99646.28;4468605;32;34119;-86
2022/05/06 09:34:52;;;;;;;;;;;;;;;23.72;38.40;99655.63;4468468;32;33974;-85
2022/05/06 09:37:29;;;;;;;;;;;;;;;24.92;37.25;99638.09;4468405;32;34126;-87
2022/05/06 09:40:02;;;;;;;;;;;;;;;24.12;36.67;99659.53;4468270;32;34876;-85
2022/05/06 09:42:30;;;;;;;;;;;;;;;24.75;36.95;99644.91;4468826;32;35321;-85
2022/05/06 09:44:57;;;;;;;;;;;;;;;24.48;36.84;99651.25;4478561;32;34548;-86
2022/05/06 09:47:25;;;;;;;;;;;;;;;24.24;37.20;99639.69;4469735;32;34150;-85
2022/05/06 09:49:53;;;;;;;;;;;;;;;24.10;36.61;99650.81;4483581;32;34441;-84
2022/05/06 09:52:20;;;;;;;;;;;;;;;25.16;35.56;99639.84;4468735;32;34970;-85
2022/05/06 09:54:48;;;;;;;;;;;;;;;24.66;35.05;99647.94;4468145;32;34446;-86
2022/05/06 09:57:16;;;;;;;;;;;;;;;25.05;34.19;99634.06;4475679;32;34071;-85
2022/05/06 09:59:43;;;;;;;;;;;;;;;25.82;33.83;99641.63;4476794;32;34304;-86
2022/05/06 10:02:11;;;;;;;;;;;;;;;25.39;32.96;99641.59;4480234;32;34318;-85
2022/05/06 10:04:38;;;;;;;;;;;;;;;25.03;34.12;99629.72;4468333;32;33308;-85
2022/05/06 10:07:06;;;;;;;;;;;;;;;25.67;34.55;99638.66;4456559;32;34729;-83
2022/05/06 10:09:38;;;;;;;;;;;;;;;25.69;32.90;99631.50;4472963;32;34423;-85
2022/05/06 10:12:05;;;;;;;;;;;;;;;25.72;33.01;99619.84;4461268;32;34186;-84
2022/05/06 10:14:33;;;;;;;;;;;;;;;26.05;32.77;99630.00;4468033;32;34561;-83
2022/05/06 10:17:00;;;;;;;;;;;;;;;26.05;32.82;99617.59;4468021;32;35240;-85
2022/05/06 10:19:38;;;;;;;;;;;;;;;25.03;33.82;99630.59;4470524;32;34152;-85
2022/05/06 10:22:05;;;;;;;;;;;;;;;25.39;34.48;99630.09;4483952;32;33866;-85
2022/05/06 10:24:43;;;;;;;;;;;;;;;25.19;34.62;99634.44;4483781;32;33739;-84
2022/05/06 10:33:18;;;;;;;;;;;;;;;25.77;33.04;99632.97;4460994;32;34534;-83
2022/05/06 10:35:47;;;;;;;;;;;;;;;25.58;33.72;99631.06;4457973;32;34257;-83
2022/05/06 10:38:22;;;;;;;;;;;;;;;25.69;32.86;99614.69;4475578;32;34576;-84
2022/05/06 10:41:01;;;;;;;;;;;;;;;25.51;33.72;99628.75;4483189;32;34503;-84
2022/05/06 10:43:46;;;;;;;;;;;;;;;26.00;32.42;99608.09;4483691;32;34364;-85
2022/05/06 10:46:30;;;;;;;;;;;;;;;26.52;32.56;99613.78;4483901;32;33679;-85
2022/05/06 10:49:17;;;;;;;;;;;;;;;26.24;32.94;99609.66;4472628;32;34381;-84
2022/05/06 10:51:44;;;;;;;;;;;;;;;26.08;33.23;99609.50;4467701;32;34489;-84
2022/05/06 10:54:14;;;;;;;;;;;;;;;25.65;33.31;99613.97;4467983;32;34313;-84
2022/05/06 10:56:44;;;;;;;;;;;;;;;25.67;33.32;99619.19;4467853;32;33465;-84
2022/05/06 10:59:12;;;;;;;;;;;;;;;25.49;33.22;99610.19;4468609;32;34536;-85
2022/05/06 11:01:39;;;;;;;;;;;;;;;26.52;32.46;99593.38;4468696;32;33974;-85
2022/05/06 11:04:06;;;;;;;;;;;;;;;26.07;33.09;99602.47;4467701;32;35043;-85
2022/05/06 11:06:34;;;;;;;;;;;;;;;25.68;34.31;99608.53;4456937;32;33250;-83
2022/05/06 11:09:01;;;;;;;;;;;;;;;25.20;34.58;99601.66;4481235;32;35180;-85
2022/05/06 11:11:29;;;;;;;;;;;;;;;25.17;34.46;99599.13;4479836;32;34311;-83
2022/05/06 11:14:15;;;;;;;;;;;;;;;25.33;33.79;99603.78;4469370;32;34533;-85
2022/05/06 11:16:42;;;;;;;;;;;;;;;26.43;33.47;99599.06;4469478;32;33461;-85
2022/05/06 11:19:10;;;;;;;;;;;;;;;26.49;32.25;99598.84;4483893;32;34207;-85
2022/05/06 11:21:37;;;;;;;;;;;;;;;26.71;32.40;99597.81;4483404;32;34484;-85
2022/05/06 11:24:17;;;;;;;;;;;;;;;25.41;34.06;99599.03;4466416;32;35341;-85
2022/05/06 11:26:44;;;;;;;;;;;;;;;25.94;33.00;99590.63;4482432;32;33742;-84
2022/05/06 11:29:11;;;;;;;;;;;;;;;25.92;32.24;99601.34;4476766;32;33931;-84
2022/05/06 11:31:39;;;;;;;;;;;;;;;26.37;33.19;99586.94;4467612;32;35351;-84
2022/05/06 11:34:07;;;;;;;;;;;;;;;26.12;33.56;99586.31;4466318;32;35139;-84
2022/05/06 11:36:35;;;;;;;;;;;;;;;25.83;33.63;99592.88;4467064;32;33563;-84
2022/05/06 11:39:12;;;;;;;;;;;;;;;25.89;31.51;99597.94;4470367;32;34120;-85
2022/05/06 11:41:41;;;;;;;;;;;;;;;27.04;31.53;99580.28;4482930;32;34392;-84
2022/05/06 11:44:10;;;;;;;;;;;;;;;25.71;31.46;99587.13;4481726;32;35441;-84
2022/05/06 11:49:25;;;;;;;;;;;;;;;25.63;32.00;99578.62;4470997;32;33967;-84
2022/05/06 11:51:52;;;;;;;;;;;;;;;26.35;30.95;99575.50;4456075;32;34336;-84
2022/05/06 11:54:21;;;;;;;;;;;;;;;27.20;29.50;99563.59;4453456;32;35225;-84
2022/05/06 11:56:49;;;;;;;;;;;;;;;26.50;30.06;99570.44;4467455;32;33495;-84
2022/05/06 11:59:16;;;;;;;;;;;;;;;25.96;29.41;99576.34;4467364;32;35164;-85
2022/05/06 12:01:43;;;;;;;;;;;;;;;26.08;29.06;99574.09;4467226;32;33898;-84
2022/05/06 12:04:11;;;;;;;;;;;;;;;25.82;30.48;99586.72;4467133;32;34027;-85
2022/05/06 12:06:40;;;;;;;;;;;;;;;26.25;29.70;99575.97;4453297;32;34045;-84
2022/05/06 12:09:11;;;;;;;;;;;;;;;26.10;28.75;99572.22;4467166;32;34172;-85
2022/05/06 12:11:40;;;;;;;;;;;;;;;25.83;29.50;99575.16;4467388;32;34488;-85
2022/05/06 12:14:12;;;;;;;;;;;;;;;26.30;29.37;99569.53;4467481;32;34473;-84
2022/05/06 12:16:53;;;;;;;;;;;;;;;27.11;28.66;99568.44;4453225;32;33471;-85
2022/05/06 12:19:41;;;;;;;;;;;;;;;26.46;28.77;99563.56;4462284;32;35103;-85
2022/05/06 12:22:09;;;;;;;;;;;;;;;25.80;29.49;99566.44;4483600;32;34528;-84
2022/05/06 12:24:37;;;;;;;;;;;;;;;26.81;28.84;99562.75;4481860;32;34504;-84
2022/05/06 12:27:04;;;;;;;;;;;;;;;27.56;28.41;99550.25;4482557;32;33589;-84
2022/05/06 12:29:36;;;;;;;;;;;;;;;27.58;27.89;99562.56;4467295;32;36396;-86
2022/05/06 12:32:03;;;;;;;;;;;;;;;26.31;29.33;99557.09;4467198;32;33845;-85
2022/05/06 12:34:31;;;;;;;;;;;;;;;27.53;28.51;99551.25;4466578;32;34588;-85
2022/05/06 12:37:09;;;;;;;;;;;;;;;27.55;27.39;99552.06;4467204;32;33440;-84
2022/05/06 12:39:40;;;;;;;;;;;;;;;26.42;28.38;99552.16;4466955;32;35033;-85
2022/05/06 12:42:15;;;;;;;;;;;;;;;26.42;28.95;99549.50;4459395;32;34243;-84
2022/05/06 12:44:43;;;;;;;;;;;;;;;26.98;28.05;99547.78;4468523;32;35285;-85
2022/05/06 12:49:39;;;;;;;;;;;;;;;27.04;27.91;99550.13;4482298;32;34171;-84
2022/05/06 12:50:05;;;;;;;;;;;;;;;26.84;28.58;99538.66;4482461;32;34143;-85
2022/05/06 12:52:35;;;;;;;;;;;;;;;26.76;28.73;99543.50;4480656;32;33857;-86
2022/05/06 12:55:02;;;;;;;;;;;;;;;27.07;29.31;99542.00;4466754;32;34413;-85
2022/05/06 12:57:30;;;;;;;;;;;;;;;27.16;29.17;99541.56;4467488;32;34281;-85
2022/05/06 12:59:59;;;;;;;;;;;;;;;26.35;29.52;99538.28;4468548;32;33775;-86
2022/05/06 13:02:28;;;;;;;;;;;;;;;26.86;28.35;99530.63;4468548;32;34045;-86
2022/05/06 13:04:57;;;;;;;;;;;;;;;26.86;29.05;99531.50;4468604;32;34096;-85
2022/05/06 13:07:26;;;;;;;;;;;;;;;27.20;27.75;99527.22;4468374;32;33431;-86
2022/05/06 13:09:53;;;;;;;;;;;;;;;27.68;28.18;99535.44;4470972;32;35004;-86
2022/05/06 13:12:21;;;;;;;;;;;;;;;27.58;26.63;99522.59;4472318;32;34817;-86
2022/05/06 13:14:49;;;;;;;;;;;;;;;27.78;26.87;99523.41;4468405;32;35070;-84
2022/05/06 13:17:16;;;;;;;;;;;;;;;27.58;26.93;99533.25;4468325;32;33716;-86
2022/05/06 13:19:43;;;;;;;;;;;;;;;28.32;25.92;99526.72;4468474;32;34141;-86
2022/05/06 13:22:11;;;;;;;;;;;;;;;26.97;27.79;99535.41;4468629;32;34438;-86
2022/05/06 13:24:38;;;;;;;;;;;;;;;27.16;27.60;99525.59;4467980;32;35808;-86
2022/05/06 13:27:05;;;;;;;;;;;;;;;28.00;27.07;99534.66;4468410;32;33896;-85
2022/05/06 13:29:33;;;;;;;;;;;;;;;27.10;26.67;99532.09;4454406;32;34277;-86
2022/05/06 13:32:00;;;;;;;;;;;;;;;27.67;27.22;99525.72;4468601;32;34355;-86
2022/05/06 13:34:27;;;;;;;;;;;;;;;26.81;27.56;99522.00;4468949;32;34293;-85